createdAt,value
2019-02-03T00:01:40.080Z,100484.77
2019-02-03T00:04:06.157Z,100481.32
2019-02-03T00:06:32.140Z,100484.92
2019-02-03T00:08:58.218Z,100485.05
2019-02-03T00:11:24.198Z,100486.37
2019-02-03T00:13:50.265Z,100486.03
2019-02-03T00:16:16.292Z,100482.22
2019-02-03T00:18:44.976Z,100483.53
2019-02-03T00:21:10.126Z,100487.47
2019-02-03T00:23:36.172Z,100496.33
2019-02-03T00:26:02.563Z,100499.78
2019-02-03T00:28:28.627Z,100508.98
2019-02-03T00:30:54.624Z,100509.95
2019-02-03T00:33:20.798Z,100520.47
2019-02-03T00:35:46.824Z,100521.78
2019-02-03T00:38:20.101Z,100527.04
2019-02-03T00:40:40.577Z,100534.55
2019-02-03T00:43:07.032Z,100533.24
2019-02-03T00:45:33.029Z,100531.22
2019-02-03T00:47:59.126Z,100534.34
2019-02-03T00:50:26.222Z,100539.88
2019-02-03T00:52:52.227Z,100543.62
2019-02-03T00:55:18.246Z,100545.75
2019-02-03T00:57:44.317Z,100548.37
2019-02-03T01:00:10.764Z,100557.28
2019-02-03T01:02:36.792Z,100561.35
2019-02-03T01:05:02.862Z,100564.38
2019-02-03T01:07:28.942Z,100569.63
2019-02-03T01:09:54.996Z,100570.13
2019-02-03T01:12:21.024Z,100573.23
2019-02-03T01:14:47.015Z,100573.70
2019-02-03T01:17:13.148Z,100573.70
2019-02-03T01:19:39.151Z,100576.97
2019-02-03T01:22:05.144Z,100577.80
2019-02-03T01:24:31.171Z,100573.02
2019-02-03T01:26:57.214Z,100585.19
2019-02-03T01:29:23.231Z,100590.56
2019-02-03T01:31:49.395Z,100598.45
2019-02-03T01:34:15.558Z,100604.89
2019-02-03T01:36:41.922Z,100610.88
2019-02-03T01:39:08.012Z,100612.19
2019-02-03T01:41:34.002Z,100608.89
2019-02-03T01:44:00.107Z,100608.67
2019-02-03T01:46:26.128Z,100613.78
2019-02-03T01:48:52.126Z,100619.86
2019-02-03T01:51:18.161Z,100616.55
2019-02-03T01:53:44.157Z,100620.95
2019-02-03T01:56:10.135Z,100627.89
2019-02-03T01:58:36.188Z,100633.53
2019-02-03T02:01:02.194Z,100639.12
2019-02-03T02:03:28.190Z,100642.61
2019-02-03T02:05:54.192Z,100644.53
2019-02-03T02:08:20.289Z,100654.19
2019-02-03T02:10:46.362Z,100652.27
2019-02-03T02:13:12.670Z,100652.75
2019-02-03T02:15:38.713Z,100653.95
2019-02-03T02:18:04.755Z,100657.18
2019-02-03T02:20:30.831Z,100648.47
2019-02-03T02:22:56.833Z,100654.19
2019-02-03T02:25:22.830Z,100656.47
2019-02-03T02:27:48.840Z,100661.39
2019-02-03T02:30:14.826Z,100664.02
2019-02-03T02:32:40.827Z,100660.31
2019-02-03T02:35:06.799Z,100664.74
2019-02-03T02:37:32.805Z,100672.13
2019-02-03T02:40:11.901Z,100681.81
2019-02-03T02:42:26.567Z,100678.36
2019-02-03T02:44:52.602Z,100684.22
2019-02-03T02:47:18.644Z,100682.79
2019-02-03T02:49:44.929Z,100681.25
2019-02-03T02:52:10.937Z,100687.33
2019-02-03T02:54:36.962Z,100693.08
2019-02-03T02:57:02.962Z,100700.47
2019-02-03T02:59:29.006Z,100703.44
2019-02-03T03:01:54.984Z,100700.36
2019-02-03T03:04:20.979Z,100706.44
2019-02-03T03:06:47.032Z,100706.55
2019-02-03T03:09:13.796Z,100706.21
2019-02-03T03:11:39.876Z,100714.58
2019-02-03T03:14:05.856Z,100710.64
2019-02-03T03:16:31.857Z,100715.64
2019-02-03T03:18:57.842Z,100714.47
2019-02-03T03:21:23.826Z,100706.11
2019-02-03T03:23:49.795Z,100708.39
2019-02-03T03:26:16.177Z,100711.47
2019-02-03T03:28:42.148Z,100701.45
2019-02-03T03:31:08.145Z,100709.33
2019-02-03T03:33:34.150Z,100715.08
2019-02-03T03:36:00.225Z,100707.68
2019-02-03T03:38:32.302Z,100721.76
2019-02-03T03:40:54.108Z,100730.95
2019-02-03T03:43:20.096Z,100730.95
2019-02-03T03:45:46.212Z,100741.45
2019-02-03T03:48:12.261Z,100741.23
2019-02-03T03:50:38.255Z,100738.15
2019-02-03T03:53:04.316Z,100743.26
2019-02-03T03:55:30.314Z,100740.29
2019-02-03T03:57:56.304Z,100741.12
2019-02-03T04:00:22.418Z,100738.15
2019-02-03T04:02:48.862Z,100735.98
2019-02-03T04:05:14.901Z,100739.47
2019-02-03T04:07:40.911Z,100736.47
2019-02-03T04:10:06.907Z,100750.08
2019-02-03T04:12:33.017Z,100751.88
2019-02-03T04:14:58.997Z,100771.58
2019-02-03T04:17:24.975Z,100795.22
2019-02-03T04:19:52.738Z,100807.64
2019-02-03T04:22:18.796Z,100824.11
2019-02-03T04:24:44.801Z,100826.37
2019-02-03T04:27:10.817Z,100836.53
2019-02-03T04:29:36.851Z,100851.46
2019-02-03T04:32:02.843Z,100865.91
2019-02-03T04:34:29.907Z,100877.73
2019-02-03T04:36:56.170Z,100878.17
2019-02-03T04:39:22.707Z,100879.63
2019-02-03T04:41:48.797Z,100881.66
2019-02-03T04:44:14.839Z,100885.23
2019-02-03T04:46:40.893Z,100900.05
2019-02-03T04:49:06.922Z,100902.06
2019-02-03T04:51:32.963Z,100909.95
2019-02-03T04:53:58.986Z,100913.89
2019-02-03T04:56:25.355Z,100916.17
2019-02-03T04:58:51.439Z,100914.50
2019-02-03T05:01:17.424Z,100923.54
2019-02-03T05:03:43.421Z,100927.44
2019-02-03T05:06:09.488Z,100938.30
2019-02-03T05:08:35.464Z,100946.53
2019-02-03T05:11:01.457Z,100951.52
2019-02-03T05:13:27.439Z,100958.81
2019-02-03T05:15:53.619Z,100958.92
2019-02-03T05:18:19.806Z,100963.47
2019-02-03T05:20:45.934Z,100964.91
2019-02-03T05:23:11.943Z,100973.84
2019-02-03T05:25:37.940Z,100975.77
2019-02-03T05:28:03.937Z,100976.97
2019-02-03T05:30:29.911Z,100984.59
2019-02-03T05:32:56.055Z,100989.36
2019-02-03T05:35:22.094Z,100986.25
2019-02-03T05:37:48.154Z,100987.56
2019-02-03T05:40:14.165Z,100991.39
2019-02-03T05:42:40.275Z,100998.54
2019-02-03T05:45:06.272Z,101002.03
2019-02-03T05:47:32.268Z,101003.94
2019-02-03T05:49:58.332Z,101003.20
2019-02-03T05:52:24.684Z,100996.52
2019-02-03T05:54:50.671Z,101001.29
2019-02-03T05:57:16.672Z,100999.97
2019-02-03T05:59:42.706Z,100999.37
2019-02-03T06:02:10.089Z,100999.95
2019-02-03T06:04:36.192Z,101005.34
2019-02-03T06:07:02.184Z,101003.17
2019-02-03T06:09:36.436Z,101000.92
2019-02-03T06:11:55.904Z,101003.29
2019-02-03T06:14:22.010Z,101005.58
2019-02-03T06:16:48.063Z,101010.47
2019-02-03T06:19:14.200Z,101020.87
2019-02-03T06:21:40.178Z,101017.16
2019-02-03T06:24:06.259Z,101008.09
2019-02-03T06:26:32.246Z,101012.61
2019-02-03T06:28:58.615Z,101021.44
2019-02-03T06:31:24.618Z,101032.34
2019-02-03T06:33:50.609Z,101037.48
2019-02-03T06:36:16.581Z,101034.48
2019-02-03T06:38:42.565Z,101039.03
2019-02-03T06:41:08.544Z,101038.57
2019-02-03T06:43:34.583Z,101039.40
2019-02-03T06:46:00.955Z,101041.05
2019-02-03T06:48:27.026Z,101042.14
2019-02-03T06:50:53.126Z,101041.77
2019-02-03T06:53:19.208Z,101043.92
2019-02-03T06:55:45.212Z,101047.03
2019-02-03T06:58:11.214Z,101054.92
2019-02-03T07:00:37.280Z,101060.56
2019-02-03T07:03:03.278Z,101062.56
2019-02-03T07:05:29.318Z,101066.88
2019-02-03T07:07:55.325Z,101060.91
2019-02-03T07:10:21.311Z,101062.70
2019-02-03T07:12:47.356Z,101064.25
2019-02-03T07:15:13.341Z,101069.02
2019-02-03T07:17:39.344Z,101066.05
2019-02-03T07:20:05.431Z,101069.36
2019-02-03T07:22:31.456Z,101068.28
2019-02-03T07:24:57.484Z,101074.52
2019-02-03T07:27:23.481Z,101075.48
2019-02-03T07:29:49.529Z,101082.06
2019-02-03T07:32:15.517Z,101090.64
2019-02-03T07:34:41.534Z,101100.22
2019-02-03T07:37:07.577Z,101095.78
2019-02-03T07:39:33.556Z,101102.96
2019-02-03T07:42:00.042Z,101099.73
2019-02-03T07:44:26.014Z,101104.73
2019-02-03T07:46:52.021Z,101116.72
2019-02-03T07:49:18.008Z,101123.64
2019-02-03T07:51:44.042Z,101117.30
2019-02-03T07:54:10.100Z,101128.64
2019-02-03T07:56:36.188Z,101128.30
2019-02-03T07:59:02.183Z,101130.94
2019-02-03T08:01:28.169Z,101129.96
2019-02-03T08:03:54.163Z,101140.86
2019-02-03T08:06:20.161Z,101144.81
2019-02-03T08:08:46.182Z,101150.66
2019-02-03T08:11:12.259Z,101147.92
2019-02-03T08:13:38.287Z,101155.19
2019-02-03T08:16:04.281Z,101157.36
2019-02-03T08:18:30.276Z,101163.56
2019-02-03T08:20:56.273Z,101175.30
2019-02-03T08:23:22.329Z,101175.19
2019-02-03T08:25:48.409Z,101173.38
2019-02-03T08:28:14.483Z,101184.50
2019-02-03T08:30:40.487Z,101189.53
2019-02-03T08:33:06.505Z,101191.03
2019-02-03T08:35:32.531Z,101198.52
2019-02-03T08:37:58.571Z,101197.62
2019-02-03T08:40:36.113Z,101206.91
2019-02-03T08:42:52.280Z,101213.30
2019-02-03T08:45:18.296Z,101217.31
2019-02-03T08:47:45.460Z,101219.73
2019-02-03T08:50:11.776Z,101229.06
2019-02-03T08:52:37.795Z,101225.59
2019-02-03T08:55:03.789Z,101230.62
2019-02-03T08:57:30.044Z,101223.35
2019-02-03T08:59:56.099Z,101235.79
2019-02-03T09:02:22.219Z,101234.73
2019-02-03T09:04:48.228Z,101236.75
2019-02-03T09:07:14.247Z,101239.48
2019-02-03T09:09:40.247Z,101247.04
2019-02-03T09:12:06.334Z,101255.05
2019-02-03T09:14:32.605Z,101260.45
2019-02-03T09:16:58.592Z,101272.39
2019-02-03T09:19:24.585Z,101272.16
2019-02-03T09:21:50.597Z,101274.30
2019-02-03T09:24:16.705Z,101271.81
2019-02-03T09:26:42.673Z,101273.58
2019-02-03T09:29:08.769Z,101274.56
2019-02-03T09:31:34.758Z,101281.11
2019-02-03T09:34:01.128Z,101279.09
2019-02-03T09:36:27.112Z,101284.96
2019-02-03T09:38:53.114Z,101285.77
2019-02-03T09:41:19.119Z,101297.16
2019-02-03T09:43:45.107Z,101302.28
2019-02-03T09:46:11.121Z,101306.12
2019-02-03T09:48:37.205Z,101311.50
2019-02-03T09:51:03.223Z,101310.32
2019-02-03T09:53:29.596Z,101315.70
2019-02-03T09:55:55.679Z,101316.52
2019-02-03T09:58:21.660Z,101322.27
2019-02-03T10:00:47.744Z,101327.64
2019-02-03T10:03:13.771Z,101332.08
2019-02-03T10:05:39.757Z,101336.99
2019-02-03T10:08:05.858Z,101347.14
2019-02-03T10:10:31.852Z,101340.11
2019-02-03T10:12:58.322Z,101339.73
2019-02-03T10:15:24.353Z,101347.62
2019-02-03T10:17:50.360Z,101353.38
2019-02-03T10:20:16.387Z,101356.48
2019-02-03T10:22:42.475Z,101368.57
2019-02-03T10:25:08.635Z,101364.38
2019-02-03T10:27:34.852Z,101360.56
2019-02-03T10:30:01.251Z,101363.05
2019-02-03T10:32:30.154Z,101366.77
2019-02-03T10:34:55.004Z,101371.58
2019-02-03T10:37:21.031Z,101372.89
2019-02-03T10:39:47.007Z,101373.83
2019-02-03T10:42:13.031Z,101378.27
2019-02-03T10:44:39.030Z,101374.31
2019-02-03T10:47:05.007Z,101377.64
2019-02-03T10:49:32.242Z,101379.69
2019-02-03T10:51:58.253Z,101387.34
2019-02-03T10:54:24.282Z,101384.36
2019-02-03T10:56:50.274Z,101391.28
2019-02-03T10:59:16.332Z,101387.92
2019-02-03T11:01:42.500Z,101392.36
2019-02-03T11:04:08.587Z,101402.53
2019-02-03T11:06:34.657Z,101399.20
2019-02-03T11:09:01.006Z,101397.65
2019-02-03T11:11:36.457Z,101403.98
2019-02-03T11:13:54.727Z,101405.55
2019-02-03T11:16:20.731Z,101413.06
2019-02-03T11:18:46.832Z,101412.47
2019-02-03T11:21:12.881Z,101420.84
2019-02-03T11:23:40.474Z,101424.91
2019-02-03T11:26:06.556Z,101427.67
2019-02-03T11:28:32.549Z,101427.67
2019-02-03T11:30:58.858Z,101428.98
2019-02-03T11:33:24.985Z,101435.56
2019-02-03T11:35:51.031Z,101437.58
2019-02-03T11:38:17.109Z,101444.88
2019-02-03T11:40:43.156Z,101442.49
2019-02-03T11:43:09.256Z,101448.94
2019-02-03T11:45:35.329Z,101450.63
2019-02-03T11:48:01.409Z,101453.16
2019-02-03T11:50:27.818Z,101449.31
2019-02-03T11:52:54.428Z,101454.58
2019-02-03T11:55:20.445Z,101461.27
2019-02-03T11:57:46.506Z,101464.86
2019-02-03T12:00:12.615Z,101465.59
2019-02-03T12:02:41.978Z,101472.17
2019-02-03T12:05:06.343Z,101472.52
2019-02-03T12:07:32.698Z,101474.21
2019-02-03T12:10:00.672Z,101483.15
2019-02-03T12:12:26.746Z,101480.06
2019-02-03T12:14:52.743Z,101482.31
2019-02-03T12:17:18.821Z,101485.78
2019-02-03T12:19:44.917Z,101485.78
2019-02-03T12:22:11.073Z,101487.09
2019-02-03T12:24:37.451Z,101490.70
2019-02-03T12:27:03.480Z,101490.70
2019-02-03T12:29:29.534Z,101492.84
2019-02-03T12:31:55.648Z,101492.02
2019-02-03T12:34:21.693Z,101487.72
2019-02-03T12:36:47.734Z,101494.64
2019-02-03T12:39:13.741Z,101496.31
2019-02-03T12:41:39.756Z,101492.84
2019-02-03T12:44:05.828Z,101493.33
2019-02-03T12:46:31.872Z,101498.48
2019-02-03T12:48:57.879Z,101504.20
2019-02-03T12:51:23.873Z,101500.25
2019-02-03T12:53:49.848Z,101508.15
2019-02-03T12:56:15.836Z,101503.16
2019-02-03T12:58:41.897Z,101507.11
2019-02-03T13:01:07.950Z,101502.89
2019-02-03T13:03:33.965Z,101507.70
2019-02-03T13:06:00.168Z,101507.70
2019-02-03T13:08:26.149Z,101505.41
2019-02-03T13:10:52.176Z,101509.36
2019-02-03T13:13:18.261Z,101513.80
2019-02-03T13:15:44.319Z,101509.26
2019-02-03T13:18:10.423Z,101515.45
2019-02-03T13:20:36.783Z,101516.78
2019-02-03T13:23:02.818Z,101519.89
2019-02-03T13:25:28.797Z,101523.84
2019-02-03T13:27:54.783Z,101532.66
2019-02-03T13:30:20.852Z,101534.91
2019-02-03T13:32:46.919Z,101534.13
2019-02-03T13:35:13.066Z,101533.77
2019-02-03T13:37:39.431Z,101535.83
2019-02-03T13:40:05.440Z,101540.01
2019-02-03T13:42:37.588Z,101540.11
2019-02-03T13:44:59.192Z,101545.73
2019-02-03T13:47:25.179Z,101545.86
2019-02-03T13:49:51.202Z,101550.99
2019-02-03T13:52:17.274Z,101554.20
2019-02-03T13:54:43.628Z,101560.54
2019-02-03T13:57:09.650Z,101563.41
2019-02-03T13:59:35.822Z,101570.86
2019-02-03T14:02:01.899Z,101565.47
2019-02-03T14:04:27.970Z,101570.96
2019-02-03T14:06:53.985Z,101567.85
2019-02-03T14:09:20.005Z,101573.84
2019-02-03T14:11:48.465Z,101572.53
2019-02-03T14:14:14.534Z,101580.42
2019-02-03T14:16:40.559Z,101589.39
2019-02-03T14:19:06.605Z,101584.95
2019-02-03T14:21:32.698Z,101591.67
2019-02-03T14:23:58.756Z,101600.02
2019-02-03T14:26:24.747Z,101597.03
2019-02-03T14:28:51.121Z,101600.25
2019-02-03T14:31:17.162Z,101601.46
2019-02-03T14:33:43.218Z,101602.87
2019-02-03T14:36:09.279Z,101603.46
2019-02-03T14:38:35.342Z,101600.73
2019-02-03T14:41:01.336Z,101606.70
2019-02-03T14:43:27.432Z,101608.61
2019-02-03T14:45:53.643Z,101609.44
2019-02-03T14:48:19.991Z,101611.34
2019-02-03T14:50:46.077Z,101608.22
2019-02-03T14:53:12.071Z,101616.25
2019-02-03T14:55:38.056Z,101617.44
2019-02-03T14:58:04.111Z,101616.95
2019-02-03T15:00:30.185Z,101620.64
2019-02-03T15:02:56.530Z,101614.69
2019-02-03T15:05:22.983Z,101617.77
2019-02-03T15:07:49.057Z,101617.89
2019-02-03T15:10:15.135Z,101617.52
2019-02-03T15:12:41.215Z,101625.89
2019-02-03T15:15:07.209Z,101629.34
2019-02-03T15:17:33.216Z,101628.42
2019-02-03T15:19:59.461Z,101635.48
2019-02-03T15:22:25.843Z,101640.26
2019-02-03T15:24:52.311Z,101644.78
2019-02-03T15:27:18.391Z,101651.72
2019-02-03T15:29:44.546Z,101650.87
2019-02-03T15:32:10.768Z,101657.11
2019-02-03T15:34:36.780Z,101660.09
2019-02-03T15:37:02.804Z,101658.29
2019-02-03T15:39:28.918Z,101665.00
2019-02-03T15:41:55.008Z,101668.47
2019-02-03T15:44:21.031Z,101665.00
2019-02-03T15:46:47.052Z,101666.06
2019-02-03T15:49:13.034Z,101665.00
2019-02-03T15:51:39.063Z,101669.78
2019-02-03T15:54:05.120Z,101673.47
2019-02-03T15:56:31.141Z,101679.92
2019-02-03T15:58:57.564Z,101686.50
2019-02-03T16:01:23.637Z,101690.45
2019-02-03T16:03:49.972Z,101690.92
2019-02-03T16:06:16.097Z,101695.70
2019-02-03T16:08:42.159Z,101692.72
2019-02-03T16:11:08.167Z,101695.70
2019-02-03T16:13:37.301Z,101695.35
2019-02-03T16:16:01.866Z,101698.47
2019-02-03T16:18:27.878Z,101703.83
2019-02-03T16:20:53.991Z,101708.86
2019-02-03T16:23:19.986Z,101713.70
2019-02-03T16:25:46.142Z,101714.79
2019-02-03T16:28:12.228Z,101720.89
2019-02-03T16:30:38.970Z,101729.75
2019-02-03T16:33:05.007Z,101732.73
2019-02-03T16:35:31.088Z,101733.95
2019-02-03T16:37:57.126Z,101735.36
2019-02-03T16:40:23.193Z,101740.62
2019-02-03T16:42:49.231Z,101748.17
2019-02-03T16:45:15.375Z,101746.17
2019-02-03T16:47:41.398Z,101756.22
2019-02-03T16:50:07.631Z,101757.16
2019-02-03T16:52:33.660Z,101749.25
2019-02-03T16:55:00.056Z,101758.02
2019-02-03T16:57:26.195Z,101763.28
2019-02-03T16:59:52.202Z,101759.78
2019-02-03T17:02:18.290Z,101763.86
2019-02-03T17:04:44.302Z,101762.98
2019-02-03T17:07:10.334Z,101765.27
2019-02-03T17:09:36.591Z,101777.20
2019-02-03T17:12:02.912Z,101778.91
2019-02-03T17:14:29.911Z,101782.47
2019-02-03T17:16:56.164Z,101791.48
2019-02-03T17:19:22.154Z,101792.94
2019-02-03T17:21:48.208Z,101797.36
2019-02-03T17:24:14.275Z,101804.91
2019-02-03T17:26:40.340Z,101799.25
2019-02-03T17:29:06.733Z,101800.47
2019-02-03T17:31:32.740Z,101807.41
2019-02-03T17:33:58.791Z,101811.84
2019-02-03T17:36:24.906Z,101820.70
2019-02-03T17:38:53.831Z,101826.31
2019-02-03T17:41:18.717Z,101823.59
2019-02-03T17:43:44.724Z,101828.84
2019-02-03T17:46:10.711Z,101829.42
2019-02-03T17:48:37.885Z,101841.62
2019-02-03T17:51:05.236Z,101840.91
2019-02-03T17:53:31.279Z,101839.38
2019-02-03T17:55:57.305Z,101843.41
2019-02-03T17:58:23.450Z,101843.99
2019-02-03T18:00:49.694Z,101855.65
2019-02-03T18:03:15.757Z,101861.27
2019-02-03T18:05:41.799Z,101859.47
2019-02-03T18:08:07.976Z,101863.98
2019-02-03T18:10:34.223Z,101862.67
2019-02-03T18:13:00.233Z,101865.30
2019-02-03T18:15:26.213Z,101863.28
2019-02-03T18:17:52.298Z,101863.28
2019-02-03T18:20:19.020Z,101864.69
2019-02-03T18:22:45.389Z,101874.83
2019-02-03T18:25:11.528Z,101875.31
2019-02-03T18:27:38.036Z,101868.25
2019-02-03T18:30:04.180Z,101870.05
2019-02-03T18:32:30.249Z,101862.89
2019-02-03T18:34:56.254Z,101870.64
2019-02-03T18:37:22.266Z,101872.05
2019-02-03T18:39:48.357Z,101874.52
2019-02-03T18:42:14.491Z,101881.32
2019-02-03T18:44:40.518Z,101890.77
2019-02-03T18:47:07.010Z,101889.20
2019-02-03T18:49:33.045Z,101892.98
2019-02-03T18:51:59.143Z,101896.12
2019-02-03T18:54:25.143Z,101905.84
2019-02-03T18:56:51.220Z,101908.83
2019-02-03T18:59:17.273Z,101912.45
2019-02-03T19:01:43.351Z,101908.92
2019-02-03T19:04:09.536Z,101905.06
2019-02-03T19:06:35.542Z,101905.71
2019-02-03T19:09:01.564Z,101906.70
2019-02-03T19:11:29.805Z,101911.03
2019-02-03T19:13:55.292Z,101910.95
2019-02-03T19:16:21.313Z,101921.28
2019-02-03T19:18:47.387Z,101920.16
2019-02-03T19:21:13.367Z,101927.13
2019-02-03T19:23:39.788Z,101937.25
2019-02-03T19:26:05.912Z,101930.73
2019-02-03T19:28:32.068Z,101930.95
2019-02-03T19:30:58.055Z,101936.98
2019-02-03T19:33:24.128Z,101944.27
2019-02-03T19:35:50.167Z,101947.48
2019-02-03T19:38:16.170Z,101958.23
2019-02-03T19:40:42.278Z,101958.45
2019-02-03T19:43:08.467Z,101960.82
2019-02-03T19:45:34.449Z,101963.06
2019-02-03T19:48:00.502Z,101960.66
2019-02-03T19:50:26.597Z,101968.64
2019-02-03T19:52:52.650Z,101969.70
2019-02-03T19:55:18.720Z,101970.48
2019-02-03T19:57:45.162Z,101968.69
2019-02-03T20:00:11.395Z,101979.22
2019-02-03T20:02:37.736Z,101972.98
2019-02-03T20:05:03.911Z,101970.34
2019-02-03T20:07:30.046Z,101972.69
2019-02-03T20:09:56.121Z,101973.16
2019-02-03T20:12:24.214Z,101972.69
2019-02-03T20:14:49.872Z,101982.86
2019-02-03T20:17:15.960Z,101985.58
2019-02-03T20:19:42.337Z,101986.54
2019-02-03T20:22:08.437Z,101991.71
2019-02-03T20:24:34.491Z,101991.98
2019-02-03T20:27:00.518Z,101997.38
2019-02-03T20:29:26.507Z,102001.81
2019-02-03T20:31:52.623Z,102013.17
2019-02-03T20:34:19.529Z,102015.09
2019-02-03T20:36:45.594Z,102018.00
2019-02-03T20:39:11.891Z,102018.83
2019-02-03T20:41:37.967Z,102027.78
2019-02-03T20:44:04.151Z,102025.33
2019-02-03T20:46:30.283Z,102038.19
2019-02-03T20:48:56.373Z,102039.14
2019-02-03T20:51:22.449Z,102041.42
2019-02-03T20:53:50.439Z,102038.40
2019-02-03T20:56:16.598Z,102039.80
2019-02-03T20:58:42.624Z,102045.55
2019-02-03T21:01:08.783Z,102049.62
2019-02-03T21:03:34.773Z,102055.72
2019-02-03T21:06:00.794Z,102046.33
2019-02-03T21:08:26.934Z,102052.42
2019-02-03T21:10:53.116Z,102059.97
2019-02-03T21:13:19.228Z,102060.92
2019-02-03T21:15:45.302Z,102060.17
2019-02-03T21:18:14.142Z,102064.27
2019-02-03T21:20:40.250Z,102065.41
2019-02-03T21:23:06.314Z,102070.55
2019-02-03T21:25:32.390Z,102068.48
2019-02-03T21:27:58.543Z,102070.94
2019-02-03T21:30:24.589Z,102069.80
2019-02-03T21:32:50.620Z,102073.22
2019-02-03T21:35:17.120Z,102073.42
2019-02-03T21:37:43.186Z,102084.91
2019-02-03T21:40:09.255Z,102080.21
2019-02-03T21:42:35.338Z,102088.19
2019-02-03T21:45:01.418Z,102099.20
2019-02-03T21:47:27.484Z,102101.92
2019-02-03T21:49:53.570Z,102104.19
2019-02-03T21:52:19.713Z,102098.09
2019-02-03T21:54:45.796Z,102095.19
2019-02-03T21:57:14.456Z,102104.84
2019-02-03T21:59:39.513Z,102103.25
2019-02-03T22:02:05.587Z,102103.73
2019-02-03T22:04:31.667Z,102111.75
2019-02-03T22:06:57.771Z,102121.40
2019-02-03T22:09:23.757Z,102121.61
2019-02-03T22:11:50.140Z,102124.23
2019-02-03T22:14:16.172Z,102120.29
2019-02-03T22:16:42.706Z,102117.95
2019-02-03T22:19:08.785Z,102113.81
2019-02-03T22:21:34.820Z,102117.48
2019-02-03T22:24:02.743Z,102118.05
2019-02-03T22:26:28.918Z,102119.45
2019-02-03T22:28:55.313Z,102125.19
2019-02-03T22:31:21.303Z,102124.24
2019-02-03T22:33:47.308Z,102126.42
2019-02-03T22:36:13.293Z,102121.16
2019-02-03T22:38:39.305Z,102124.24
2019-02-03T22:41:05.359Z,102129.63
2019-02-03T22:43:31.681Z,102135.72
2019-02-03T22:46:06.744Z,102139.58
2019-02-03T22:48:25.427Z,102147.08
2019-02-03T22:50:51.411Z,102147.75
2019-02-03T22:53:17.438Z,102148.31
2019-02-03T22:55:43.488Z,102142.58
2019-02-03T22:58:09.588Z,102153.58
2019-02-03T23:00:35.663Z,102146.16
2019-02-03T23:03:01.730Z,102145.29
2019-02-03T23:05:28.164Z,102147.92
2019-02-03T23:07:54.217Z,102149.34
2019-02-03T23:10:20.319Z,102140.98
2019-02-03T23:12:46.303Z,102146.80
2019-02-03T23:15:12.294Z,102143.05
2019-02-03T23:17:38.303Z,102151.98
2019-02-03T23:20:04.296Z,102155.92
2019-02-03T23:22:30.311Z,102151.59
2019-02-03T23:24:56.679Z,102157.33
2019-02-03T23:27:22.736Z,102156.57
2019-02-03T23:29:48.742Z,102151.70
2019-02-03T23:32:14.788Z,102153.02
2019-02-03T23:34:40.853Z,102151.31
2019-02-03T23:37:06.835Z,102149.27
2019-02-03T23:39:32.855Z,102147.84
2019-02-03T23:41:58.850Z,102147.95
2019-02-03T23:44:25.135Z,102145.89
2019-02-03T23:46:51.126Z,102153.38
2019-02-03T23:49:17.112Z,102151.14
2019-02-03T23:51:43.110Z,102145.77
2019-02-03T23:54:09.132Z,102144.17
2019-02-03T23:56:35.122Z,102139.03
2019-02-03T23:59:01.226Z,102132.94
